createdAt,value
2022-12-19T00:00:51.361Z,100.00
2022-12-19T00:03:22.009Z,100.00
2022-12-19T00:05:52.879Z,100.00
2022-12-19T00:08:23.440Z,100.00
2022-12-19T00:10:59.657Z,100.00
2022-12-19T00:13:34.776Z,100.00
2022-12-19T00:16:14.567Z,100.00
2022-12-19T00:18:49.735Z,100.00
2022-12-19T00:21:22.684Z,100.00
2022-12-19T00:23:53.409Z,100.00
2022-12-19T00:26:26.345Z,100.00
2022-12-19T00:28:59.412Z,100.00
2022-12-19T00:31:33.400Z,100.00
2022-12-19T00:34:04.535Z,100.00
2022-12-19T00:36:36.217Z,100.00
2022-12-19T00:39:08.498Z,100.00
2022-12-19T00:41:42.173Z,100.00
2022-12-19T00:44:18.456Z,100.00
2022-12-19T00:46:52.837Z,100.00
2022-12-19T00:49:24.027Z,100.00
2022-12-19T00:51:54.573Z,100.00
2022-12-19T00:54:25.243Z,100.00
2022-12-19T00:56:55.968Z,100.00
2022-12-19T00:59:27.126Z,100.00
2022-12-19T01:02:02.801Z,100.00
2022-12-19T01:04:38.361Z,100.00
2022-12-19T01:07:14.411Z,100.00
2022-12-19T01:09:44.918Z,99.99
2022-12-19T01:12:33.145Z,99.64
2022-12-19T01:15:05.073Z,99.24
2022-12-19T01:17:43.632Z,99.47
2022-12-19T01:20:18.130Z,99.35
2022-12-19T01:22:50.720Z,99.30
2022-12-19T01:25:21.482Z,99.09
2022-12-19T01:27:55.051Z,99.03
2022-12-19T01:30:25.657Z,99.30
2022-12-19T01:32:56.844Z,99.90
2022-12-19T01:35:28.052Z,100.00
2022-12-19T01:38:08.053Z,100.00
2022-12-19T01:40:39.588Z,100.00
2022-12-19T01:43:17.541Z,100.00
2022-12-19T01:45:50.982Z,100.00
2022-12-19T01:48:25.527Z,100.00
2022-12-19T01:51:01.620Z,100.00
2022-12-19T01:53:46.942Z,100.00
2022-12-19T01:56:30.823Z,100.00
2022-12-19T01:59:07.042Z,100.00
2022-12-19T02:01:56.693Z,100.00
2022-12-19T02:04:32.235Z,100.00
2022-12-19T02:07:14.402Z,100.00
2022-12-19T02:09:50.552Z,100.00
2022-12-19T02:12:31.058Z,100.00
2022-12-19T02:15:04.279Z,100.00
2022-12-19T02:17:48.253Z,100.00
2022-12-19T02:20:54.616Z,100.00
2022-12-19T02:24:01.217Z,100.00
2022-12-19T02:26:49.344Z,100.00
2022-12-19T02:29:41.665Z,100.00
2022-12-19T02:32:20.767Z,100.00
2022-12-19T02:34:59.483Z,100.00
2022-12-19T02:37:33.538Z,100.00
2022-12-19T02:40:14.173Z,100.00
2022-12-19T02:42:49.466Z,100.00
2022-12-19T02:45:28.745Z,100.00
2022-12-19T02:48:05.734Z,100.00
2022-12-19T02:50:41.476Z,100.00
2022-12-19T02:53:15.309Z,100.00
2022-12-19T02:56:10.253Z,100.00
2022-12-19T02:58:56.279Z,100.00
2022-12-19T03:01:39.942Z,100.00
2022-12-19T03:04:21.262Z,100.00
2022-12-19T03:06:56.743Z,100.00
2022-12-19T03:09:37.851Z,100.00
2022-12-19T03:12:17.128Z,100.00
2022-12-19T03:14:50.336Z,100.00
2022-12-19T03:17:24.856Z,100.00
2022-12-19T03:19:55.513Z,100.00
2022-12-19T03:22:25.950Z,100.00
2022-12-19T03:24:56.348Z,100.00
2022-12-19T03:27:32.335Z,100.00
2022-12-19T03:30:07.148Z,100.00
2022-12-19T03:32:40.749Z,100.00
2022-12-19T03:35:15.571Z,100.00
2022-12-19T03:37:49.093Z,100.00
2022-12-19T03:40:23.098Z,100.00
2022-12-19T03:43:11.516Z,100.00
2022-12-19T03:45:51.305Z,100.00
2022-12-19T03:48:32.659Z,100.00
2022-12-19T03:51:15.018Z,100.00
2022-12-19T03:53:56.095Z,100.00
2022-12-19T03:56:32.761Z,100.00
2022-12-19T03:59:07.746Z,100.00
2022-12-19T04:01:40.240Z,100.00
2022-12-19T04:04:14.981Z,100.00
2022-12-19T04:06:47.232Z,100.00
2022-12-19T04:09:22.745Z,100.00
2022-12-19T04:11:56.196Z,100.00
2022-12-19T04:14:31.825Z,100.00
2022-12-19T04:17:13.535Z,100.00
2022-12-19T04:19:50.347Z,100.00
2022-12-19T04:22:26.662Z,100.00
2022-12-19T04:25:00.361Z,100.00
2022-12-19T04:27:32.743Z,100.00
2022-12-19T04:30:04.609Z,100.00
2022-12-19T04:32:37.606Z,100.00
2022-12-19T04:35:09.626Z,100.00
2022-12-19T04:37:40.643Z,100.00
2022-12-19T04:40:13.848Z,100.00
2022-12-19T04:42:44.428Z,100.00
2022-12-19T04:45:15.283Z,100.00
2022-12-19T04:47:45.763Z,100.00
2022-12-19T04:50:16.576Z,100.00
2022-12-19T04:52:47.241Z,100.00
2022-12-19T04:55:17.982Z,100.00
2022-12-19T04:57:48.545Z,100.00
2022-12-19T05:00:20.046Z,100.00
2022-12-19T05:02:50.984Z,100.00
2022-12-19T05:05:21.985Z,100.00
2022-12-19T05:07:52.531Z,100.00
2022-12-19T05:10:23.511Z,100.00
2022-12-19T05:12:54.764Z,100.00
2022-12-19T05:15:23.848Z,100.00
2022-12-19T05:17:54.413Z,100.00
2022-12-19T05:20:24.827Z,100.00
2022-12-19T05:22:55.339Z,100.00
2022-12-19T05:25:26.148Z,100.00
2022-12-19T05:27:56.841Z,100.00
2022-12-19T05:30:27.529Z,100.00
2022-12-19T05:32:58.347Z,100.00
2022-12-19T05:35:29.005Z,100.00
2022-12-19T05:37:59.527Z,100.00
2022-12-19T05:40:30.270Z,100.00
2022-12-19T05:43:00.958Z,100.00
2022-12-19T05:45:31.433Z,100.00
2022-12-19T05:48:02.131Z,100.00
2022-12-19T05:50:32.563Z,100.00
2022-12-19T05:53:12.677Z,100.00
2022-12-19T05:55:43.611Z,100.00
2022-12-19T05:58:14.561Z,100.00
2022-12-19T06:00:45.563Z,100.00
2022-12-19T06:03:16.204Z,100.00
2022-12-19T06:05:46.836Z,100.00
2022-12-19T06:08:17.239Z,100.00
2022-12-19T06:10:47.766Z,100.00
2022-12-19T06:13:22.161Z,100.00
2022-12-19T06:15:59.995Z,100.00
2022-12-19T06:18:31.758Z,100.00
2022-12-19T06:21:04.509Z,100.00
2022-12-19T06:23:36.965Z,100.00
2022-12-19T06:26:26.757Z,100.00
2022-12-19T06:29:00.143Z,100.00
2022-12-19T06:31:31.169Z,100.00
2022-12-19T06:34:02.383Z,100.00
2022-12-19T06:36:33.677Z,100.00
2022-12-19T06:39:04.858Z,100.00
2022-12-19T06:41:53.084Z,100.00
2022-12-19T06:44:23.772Z,100.00
2022-12-19T06:46:54.976Z,100.00
2022-12-19T06:49:25.732Z,100.00
2022-12-19T06:51:56.331Z,100.00
2022-12-19T06:54:26.791Z,100.00
2022-12-19T06:56:57.652Z,100.00
2022-12-19T06:59:28.168Z,100.00
2022-12-19T07:02:03.351Z,100.00
2022-12-19T07:04:38.880Z,100.00
2022-12-19T07:07:09.916Z,100.00
2022-12-19T07:09:40.504Z,100.00
2022-12-19T07:12:11.316Z,100.00
2022-12-19T07:14:41.835Z,100.00
2022-12-19T07:17:13.567Z,100.00
2022-12-19T07:19:45.256Z,100.00
2022-12-19T07:22:16.070Z,100.00
2022-12-19T07:24:46.621Z,100.00
2022-12-19T07:27:17.312Z,100.00
2022-12-19T07:29:47.725Z,100.00
2022-12-19T07:32:18.198Z,100.00
2022-12-19T07:34:48.684Z,100.00
2022-12-19T07:37:19.006Z,100.00
2022-12-19T07:39:49.765Z,100.00
2022-12-19T07:42:20.219Z,100.00
2022-12-19T07:44:50.654Z,100.00
2022-12-19T07:47:21.689Z,100.00
2022-12-19T07:49:52.160Z,100.00
2022-12-19T07:52:22.510Z,100.00
2022-12-19T07:54:52.924Z,100.00
2022-12-19T07:57:23.349Z,100.00
2022-12-19T07:59:53.907Z,100.00
2022-12-19T08:02:24.922Z,100.00
2022-12-19T08:04:55.492Z,100.00
2022-12-19T08:07:25.894Z,100.00
2022-12-19T08:09:57.110Z,100.00
2022-12-19T08:12:27.987Z,100.00
2022-12-19T08:15:01.459Z,100.00
2022-12-19T08:17:31.986Z,100.00
2022-12-19T08:20:02.633Z,100.00
2022-12-19T08:22:33.577Z,100.00
2022-12-19T08:25:04.175Z,100.00
2022-12-19T08:27:35.812Z,100.00
2022-12-19T08:30:07.731Z,100.00
2022-12-19T08:32:40.072Z,100.00
2022-12-19T08:35:12.012Z,100.00
2022-12-19T08:37:42.433Z,100.00
2022-12-19T08:40:14.557Z,100.00
2022-12-19T08:42:45.378Z,100.00
2022-12-19T08:45:17.034Z,100.00
2022-12-19T08:47:46.409Z,100.00
2022-12-19T08:50:16.986Z,100.00
2022-12-19T08:52:47.852Z,100.00
2022-12-19T08:55:18.731Z,100.00
2022-12-19T08:57:49.343Z,100.00
2022-12-19T09:00:22.173Z,100.00
2022-12-19T09:02:53.726Z,100.00
2022-12-19T09:06:03.921Z,100.00
2022-12-19T09:08:15.269Z,100.00
2022-12-19T09:10:45.579Z,100.00
2022-12-19T09:13:16.054Z,100.00
2022-12-19T09:15:46.528Z,100.00
2022-12-19T09:18:17.092Z,100.00
2022-12-19T09:20:49.815Z,100.00
2022-12-19T09:23:20.431Z,100.00
2022-12-19T09:25:50.881Z,100.00
2022-12-19T09:28:29.499Z,100.00
2022-12-19T09:31:01.823Z,100.00
2022-12-19T09:33:41.215Z,100.00
2022-12-19T09:36:14.308Z,100.00
2022-12-19T09:38:45.262Z,100.00
2022-12-19T09:42:04.155Z,100.00
2022-12-19T09:45:18.769Z,100.00
2022-12-19T09:48:05.898Z,100.00
2022-12-19T09:50:50.908Z,100.00
2022-12-19T09:53:28.846Z,100.00
2022-12-19T09:56:01.348Z,100.00
2022-12-19T09:58:41.065Z,100.00
2022-12-19T10:01:21.431Z,100.00
2022-12-19T10:04:01.328Z,100.00
2022-12-19T10:07:11.539Z,100.00
2022-12-19T10:11:44.941Z,100.00
2022-12-19T10:12:45.314Z,100.00
2022-12-19T10:15:30.149Z,100.00
2022-12-19T10:18:13.162Z,100.00
2022-12-19T10:20:48.682Z,100.00
2022-12-19T10:23:59.001Z,100.00
2022-12-19T10:26:38.764Z,100.00
2022-12-19T10:29:26.389Z,100.00
2022-12-19T10:32:04.710Z,100.00
2022-12-19T10:34:41.022Z,100.00
2022-12-19T10:37:26.784Z,100.00
2022-12-19T10:40:16.216Z,100.00
2022-12-19T10:42:59.532Z,100.00
2022-12-19T10:45:39.831Z,100.00
2022-12-19T10:48:17.935Z,100.00
2022-12-19T10:50:50.284Z,100.00
2022-12-19T10:53:29.807Z,100.00
2022-12-19T10:56:03.884Z,100.00
2022-12-19T10:58:38.372Z,100.00
2022-12-19T11:01:15.849Z,100.00
2022-12-19T11:03:50.075Z,100.00
2022-12-19T11:06:49.024Z,100.00
2022-12-19T11:09:27.621Z,100.00
2022-12-19T11:16:44.879Z,100.00
2022-12-19T11:19:43.502Z,100.00
2022-12-19T11:25:51.535Z,100.00
2022-12-19T11:29:26.191Z,100.00
2022-12-19T11:30:08.653Z,100.00
2022-12-19T11:30:09.085Z,100.00
2022-12-19T11:32:46.003Z,100.00
2022-12-19T11:35:36.815Z,100.00
2022-12-19T11:38:13.164Z,100.00
2022-12-19T11:40:51.653Z,100.00
2022-12-19T11:43:45.366Z,100.00
2022-12-19T11:46:26.499Z,100.00
2022-12-19T11:49:02.761Z,100.00
2022-12-19T11:51:41.609Z,100.00
2022-12-19T11:54:20.715Z,100.00
2022-12-19T11:56:51.176Z,100.00
2022-12-19T11:59:25.867Z,100.00
2022-12-19T12:02:09.142Z,100.00
2022-12-19T12:05:09.284Z,100.00
2022-12-19T12:09:05.703Z,100.00
2022-12-19T12:14:09.787Z,100.00
2022-12-19T12:21:50.648Z,100.00
2022-12-19T12:29:41.594Z,100.00
2022-12-19T12:31:13.772Z,100.00
2022-12-19T12:31:17.243Z,100.00
2022-12-19T12:31:52.229Z,100.00
2022-12-19T12:31:55.169Z,100.00
2022-12-19T12:35:32.949Z,100.00
2022-12-19T12:37:03.644Z,100.00
2022-12-19T12:38:22.890Z,100.00
2022-12-19T12:41:16.782Z,100.00
2022-12-19T12:44:06.162Z,100.00
2022-12-19T12:46:41.380Z,100.00
2022-12-19T12:49:33.674Z,100.00
2022-12-19T12:52:06.510Z,100.00
2022-12-19T12:54:40.510Z,100.00
2022-12-19T12:57:21.143Z,100.00
2022-12-19T13:00:19.386Z,100.00
2022-12-19T13:02:54.891Z,100.00
2022-12-19T13:05:53.458Z,100.00
2022-12-19T13:08:36.125Z,100.00
2022-12-19T13:11:33.337Z,100.00
2022-12-19T13:14:04.224Z,100.00
2022-12-19T13:16:55.167Z,100.00
2022-12-19T13:19:29.346Z,100.00
2022-12-19T13:22:38.010Z,100.00
2022-12-19T13:25:44.220Z,100.00
2022-12-19T13:28:32.711Z,100.00
2022-12-19T13:31:23.721Z,100.00
2022-12-19T13:34:20.764Z,100.00
2022-12-19T13:39:48.317Z,100.00
2022-12-19T13:40:11.076Z,100.00
2022-12-19T13:43:14.206Z,100.00
2022-12-19T13:45:53.334Z,100.00
2022-12-19T13:48:31.484Z,100.00
2022-12-19T13:51:08.010Z,100.00
2022-12-19T13:53:39.365Z,100.00
2022-12-19T13:56:13.722Z,100.00
2022-12-19T13:58:50.463Z,100.00
2022-12-19T14:01:28.856Z,100.00
2022-12-19T14:04:08.184Z,100.00
2022-12-19T14:06:45.080Z,100.00
2022-12-19T14:11:30.369Z,100.00
2022-12-19T14:13:47.787Z,100.00
2022-12-19T14:15:33.857Z,100.00
2022-12-19T14:18:43.475Z,100.00
2022-12-19T14:22:07.036Z,100.00
2022-12-19T14:24:22.398Z,100.00
2022-12-19T14:28:21.947Z,100.00
2022-12-19T14:30:30.429Z,100.00
2022-12-19T14:33:46.387Z,100.00
2022-12-19T14:36:07.058Z,100.00
2022-12-19T14:39:20.206Z,100.00
2022-12-19T14:42:00.952Z,100.00
2022-12-19T14:52:11.609Z,100.00
2022-12-19T14:52:35.511Z,100.00
2022-12-19T14:54:26.939Z,100.00
2022-12-19T14:54:28.470Z,100.00
2022-12-19T14:59:27.702Z,100.00
2022-12-19T15:02:02.208Z,100.00
2022-12-19T15:04:48.411Z,100.00
2022-12-19T15:07:24.666Z,100.00
2022-12-19T15:11:09.160Z,100.00
2022-12-19T15:14:54.329Z,100.00
2022-12-19T15:16:24.227Z,100.00
2022-12-19T15:18:57.395Z,100.00
2022-12-19T15:21:29.543Z,100.00
2022-12-19T15:24:00.139Z,100.00
2022-12-19T15:26:34.771Z,100.00
2022-12-19T15:29:16.695Z,100.00
2022-12-19T15:31:52.057Z,100.00
2022-12-19T15:34:35.791Z,100.00
2022-12-19T15:37:09.671Z,100.00
2022-12-19T15:39:38.582Z,100.00
2022-12-19T15:42:18.387Z,100.00
2022-12-19T15:44:50.892Z,100.00
2022-12-19T15:47:27.658Z,100.00
2022-12-19T15:49:58.258Z,100.00
2022-12-19T15:52:29.504Z,100.00
2022-12-19T15:54:59.854Z,100.00
2022-12-19T15:57:33.602Z,100.00
2022-12-19T16:00:07.636Z,100.00
2022-12-19T16:03:21.301Z,100.00
2022-12-19T16:05:30.900Z,100.00
2022-12-19T16:08:01.480Z,100.00
2022-12-19T16:10:32.215Z,100.00
2022-12-19T16:13:02.743Z,100.00
2022-12-19T16:15:35.218Z,100.00
2022-12-19T16:18:06.512Z,100.00
2022-12-19T16:20:40.328Z,100.00
2022-12-19T16:23:11.793Z,100.00
2022-12-19T16:25:41.981Z,100.00
2022-12-19T16:28:27.826Z,100.00
2022-12-19T16:31:00.451Z,100.00
2022-12-19T16:33:32.295Z,100.00
2022-12-19T16:36:05.182Z,100.00
2022-12-19T16:38:37.564Z,100.00
2022-12-19T16:41:11.805Z,100.00
2022-12-19T16:43:45.241Z,100.00
2022-12-19T16:46:19.496Z,100.00
2022-12-19T16:48:50.828Z,100.00
2022-12-19T16:51:24.235Z,100.00
2022-12-19T16:54:00.219Z,100.00
2022-12-19T16:56:35.161Z,100.00
2022-12-19T16:59:12.360Z,100.00
2022-12-19T17:01:43.527Z,100.00
2022-12-19T17:04:17.581Z,100.00
2022-12-19T17:06:48.337Z,100.00
2022-12-19T17:09:20.576Z,100.00
2022-12-19T17:11:54.077Z,100.00
2022-12-19T17:14:27.057Z,100.00
2022-12-19T17:16:59.088Z,100.00
2022-12-19T17:19:33.777Z,100.00
2022-12-19T17:22:04.796Z,100.00
2022-12-19T17:24:36.255Z,100.00
2022-12-19T17:27:07.153Z,100.00
2022-12-19T17:29:37.555Z,100.00
2022-12-19T17:32:10.252Z,100.00
2022-12-19T17:34:40.900Z,100.00
2022-12-19T17:37:17.976Z,100.00
2022-12-19T17:39:49.548Z,100.00
2022-12-19T17:42:24.367Z,100.00
2022-12-19T17:44:54.952Z,100.00
2022-12-19T17:47:26.559Z,100.00
2022-12-19T17:49:58.542Z,100.00
2022-12-19T17:52:29.944Z,100.00
2022-12-19T17:54:58.831Z,100.00
2022-12-19T17:57:32.272Z,100.00
2022-12-19T18:00:05.155Z,100.00
2022-12-19T18:02:43.413Z,100.00
2022-12-19T18:05:22.172Z,100.00
2022-12-19T18:07:53.189Z,100.00
2022-12-19T18:10:25.784Z,100.00
2022-12-19T18:12:56.898Z,100.00
2022-12-19T18:15:27.621Z,100.00
2022-12-19T18:17:58.440Z,100.00
2022-12-19T18:20:32.611Z,100.00
2022-12-19T18:23:03.810Z,100.00
2022-12-19T18:25:35.916Z,100.00
2022-12-19T18:28:06.555Z,100.00
2022-12-19T18:30:38.471Z,100.00
2022-12-19T18:33:15.845Z,100.00
2022-12-19T18:35:48.570Z,100.00
2022-12-19T18:38:21.081Z,100.00
2022-12-19T18:40:52.898Z,100.00
2022-12-19T18:43:23.447Z,100.00
2022-12-19T18:45:54.998Z,100.00
2022-12-19T18:48:28.923Z,100.00
2022-12-19T18:51:00.532Z,100.00
2022-12-19T18:53:35.774Z,100.00
2022-12-19T18:56:08.527Z,100.00
2022-12-19T18:58:38.956Z,100.00
2022-12-19T19:01:15.410Z,100.00
2022-12-19T19:03:51.599Z,100.00
2022-12-19T19:06:24.254Z,100.00
2022-12-19T19:08:56.947Z,100.00
2022-12-19T19:12:03.060Z,100.00
2022-12-19T19:14:33.583Z,100.00
2022-12-19T19:17:04.404Z,100.00
2022-12-19T19:19:34.772Z,100.00
2022-12-19T19:22:06.001Z,100.00
2022-12-19T19:24:36.662Z,100.00
2022-12-19T19:27:07.160Z,100.00
2022-12-19T19:29:38.985Z,100.00
2022-12-19T19:32:09.704Z,100.00
2022-12-19T19:34:41.044Z,100.00
2022-12-19T19:37:14.653Z,100.00
2022-12-19T19:39:45.060Z,100.00
2022-12-19T19:42:15.497Z,100.00
2022-12-19T19:44:46.660Z,100.00
2022-12-19T19:47:17.231Z,100.00
2022-12-19T19:49:47.670Z,100.00
2022-12-19T19:52:18.180Z,100.00
2022-12-19T19:54:48.487Z,100.00
2022-12-19T19:57:18.974Z,100.00
2022-12-19T19:59:49.672Z,100.00
2022-12-19T20:02:20.579Z,100.00
2022-12-19T20:04:51.134Z,100.00
2022-12-19T20:07:22.220Z,100.00
2022-12-19T20:09:53.121Z,100.00
2022-12-19T20:12:23.666Z,100.00
2022-12-19T20:14:54.330Z,100.00
2022-12-19T20:17:25.151Z,100.00
2022-12-19T20:19:56.116Z,100.00
2022-12-19T20:22:26.734Z,100.00
2022-12-19T20:24:57.529Z,100.00
2022-12-19T20:27:28.012Z,100.00
2022-12-19T20:29:58.440Z,100.00
2022-12-19T20:32:30.499Z,100.00
2022-12-19T20:35:00.860Z,100.00
2022-12-19T20:37:33.002Z,100.00
2022-12-19T20:40:05.766Z,100.00
2022-12-19T20:42:36.440Z,100.00
2022-12-19T20:45:07.929Z,100.00
2022-12-19T20:47:38.555Z,100.00
2022-12-19T20:50:12.953Z,100.00
2022-12-19T20:52:43.522Z,100.00
2022-12-19T20:55:14.045Z,100.00
2022-12-19T20:57:44.665Z,100.00
2022-12-19T21:00:17.922Z,100.00
2022-12-19T21:03:25.733Z,100.00
2022-12-19T21:05:38.828Z,100.00
2022-12-19T21:08:09.619Z,100.00
2022-12-19T21:10:40.046Z,100.00
2022-12-19T21:13:10.785Z,100.00
2022-12-19T21:15:41.195Z,100.00
2022-12-19T21:18:12.190Z,100.00
2022-12-19T21:20:42.665Z,100.00
2022-12-19T21:23:13.092Z,100.00
2022-12-19T21:25:43.712Z,100.00
2022-12-19T21:28:14.587Z,100.00
2022-12-19T21:30:45.081Z,100.00
2022-12-19T21:33:15.617Z,100.00
2022-12-19T21:35:46.263Z,100.00
2022-12-19T21:38:18.934Z,100.00
2022-12-19T21:40:49.454Z,100.00
2022-12-19T21:43:20.001Z,100.00
2022-12-19T21:45:50.545Z,100.00
2022-12-19T21:48:21.587Z,100.00
2022-12-19T21:50:58.668Z,100.00
2022-12-19T21:53:29.884Z,100.00
2022-12-19T21:56:06.914Z,100.00
2022-12-19T21:58:37.681Z,100.00
2022-12-19T22:01:14.008Z,100.00
2022-12-19T22:03:44.746Z,100.00
2022-12-19T22:06:25.510Z,100.00
2022-12-19T22:08:58.463Z,100.00
2022-12-19T22:11:30.227Z,100.00
2022-12-19T22:14:02.260Z,100.00
2022-12-19T22:16:33.702Z,100.00
2022-12-19T22:19:05.704Z,100.00
2022-12-19T22:21:37.077Z,100.00
2022-12-19T22:24:06.260Z,100.00
2022-12-19T22:26:37.082Z,100.00
2022-12-19T22:29:11.891Z,100.00
2022-12-19T22:31:43.081Z,100.00
2022-12-19T22:34:16.624Z,100.00
2022-12-19T22:36:47.993Z,100.00
2022-12-19T22:39:18.381Z,100.00
2022-12-19T22:41:49.279Z,100.00
2022-12-19T22:44:22.230Z,100.00
2022-12-19T22:46:53.247Z,100.00
2022-12-19T22:49:23.722Z,100.00
2022-12-19T22:51:54.279Z,100.00
2022-12-19T22:54:24.802Z,100.00
2022-12-19T22:56:55.279Z,100.00
2022-12-19T22:59:25.705Z,100.00
2022-12-19T23:01:56.394Z,100.00
2022-12-19T23:04:27.034Z,100.00
2022-12-19T23:06:58.641Z,100.00
2022-12-19T23:09:29.283Z,100.00
2022-12-19T23:11:59.898Z,100.00
2022-12-19T23:14:30.486Z,100.00
2022-12-19T23:17:01.108Z,100.00
2022-12-19T23:19:31.754Z,100.00
2022-12-19T23:22:05.796Z,100.00
2022-12-19T23:24:36.965Z,100.00
2022-12-19T23:27:08.322Z,100.00
2022-12-19T23:29:38.979Z,100.00
2022-12-19T23:32:09.815Z,100.00
2022-12-19T23:34:40.487Z,100.00
2022-12-19T23:37:12.189Z,100.00
2022-12-19T23:39:43.083Z,100.00
2022-12-19T23:42:13.610Z,100.00
2022-12-19T23:44:44.204Z,100.00
2022-12-19T23:47:14.935Z,100.00
2022-12-19T23:49:45.591Z,100.00
2022-12-19T23:52:16.222Z,100.00
2022-12-19T23:54:47.188Z,100.00
2022-12-19T23:57:18.435Z,100.00
2022-12-19T23:59:49.123Z,100.00
